Time;durP1;ratioP1;P1;durP2;ratioP2;P2;SDS_P1;SDS_P2;PMS_P1;PMS_P2;Temp;Humidity;BMP_temperature;BMP_pressure;BME280_temperature;BME280_humidity;BME280_pressure;Samples;Min_cycle;Max_cycle;Signal;HPM_P1;HPM_P2
2022/01/31 00:00:19;;;;;;;16.93;5.50;;;4.30;99.90;;;5.09;77.02;-19900.00;5073468;28;20212;-68
2022/01/31 00:02:49;;;;;;;14.97;4.07;;;4.20;99.90;;;5.09;76.84;-19900.16;5074393;28;20245;-72
2022/01/31 00:05:18;;;;;;;15.93;4.60;;;4.30;99.90;;;5.23;74.79;-19904.94;5073613;28;20224;-70
2022/01/31 00:07:48;;;;;;;16.37;3.57;;;4.30;99.90;;;5.15;75.31;-19902.22;5073931;28;20238;-72
2022/01/31 00:10:26;;;;;;;10.67;3.50;;;4.30;99.90;;;5.04;76.19;-19898.28;5072556;28;20250;-69
2022/01/31 00:13:00;;;;;;;18.67;4.00;;;4.20;99.90;;;5.02;76.19;-19897.59;5073371;28;20572;-71
2022/01/31 00:15:29;;;;;;;15.60;3.27;;;4.20;99.90;;;5.10;75.01;-19900.34;5073333;28;20725;-70
2022/01/31 00:17:57;;;;;;;20.40;4.20;;;4.20;99.90;;;5.28;74.75;-19906.50;5073934;28;20204;-72
2022/01/31 00:20:26;;;;;;;11.73;3.83;;;4.30;99.90;;;5.03;75.72;-19897.94;5073001;28;20315;-71
2022/01/31 00:22:55;;;;;;;16.30;3.37;;;4.30;99.90;;;4.98;76.88;-19896.59;5073680;28;20746;-71
2022/01/31 00:25:23;;;;;;;11.67;4.17;;;4.20;99.90;;;4.90;76.40;-19893.84;5073027;28;20224;-71
2022/01/31 00:27:51;;;;;;;10.90;3.77;;;4.20;99.90;;;4.90;76.64;-19893.84;5072326;28;20257;-71
2022/01/31 00:30:19;;;;;;;11.23;3.70;;;4.20;99.90;;;4.84;77.43;-19891.63;5072199;28;20263;-71
2022/01/31 00:32:48;;;;;;;13.20;3.67;;;4.10;99.90;;;4.83;77.26;-19891.28;5072875;28;20242;-72
2022/01/31 00:35:16;;;;;;;14.33;4.40;;;4.10;99.90;;;4.83;75.45;-19891.44;5072832;28;20227;-72
2022/01/31 00:37:44;;;;;;;15.27;3.50;;;4.20;99.90;;;4.85;75.77;-19892.13;5072675;28;20307;-70
2022/01/31 00:40:14;;;;;;;13.53;3.83;;;4.10;99.90;;;4.89;75.21;-19893.50;5072954;28;20288;-70
2022/01/31 00:42:42;;;;;;;14.83;3.73;;;4.10;99.90;;;4.96;75.87;-19895.91;5072761;28;20233;-72
2022/01/31 00:45:15;;;;;;;10.63;4.70;;;4.10;99.90;;;5.14;74.25;-19901.88;5072789;28;20314;-70
2022/01/31 00:47:47;;;;;;;18.23;4.20;;;4.20;99.90;;;5.23;73.81;-19904.78;5073161;28;20761;-70
2022/01/31 00:50:18;;;;;;;12.53;3.60;;;4.20;99.90;;;5.10;74.21;-19900.50;5072580;28;20745;-70
2022/01/31 00:52:47;;;;;;;13.13;4.13;;;4.30;99.90;;;4.98;75.12;-19896.59;5072576;28;20230;-72
2022/01/31 00:55:17;;;;;;;17.63;4.57;;;4.30;99.90;;;5.17;74.32;-19902.72;5072470;28;20277;-72
2022/01/31 00:57:45;;;;;;;16.60;3.87;;;4.30;99.90;;;4.95;75.05;-19895.56;5072617;28;20249;-72
2022/01/31 01:00:16;;;;;;;17.43;4.40;;;4.30;99.90;;;5.00;75.49;-19897.09;5072191;28;20197;-72
2022/01/31 01:02:46;;;;;;;15.80;3.97;;;4.20;99.90;;;4.83;75.73;-19891.28;5073133;28;20681;-71
2022/01/31 01:05:16;;;;;;;14.20;3.60;;;4.20;99.90;;;4.84;76.87;-19891.78;5072302;28;20258;-71
2022/01/31 01:07:45;;;;;;;17.40;3.80;;;4.10;99.90;;;4.93;76.25;-19894.69;5072625;28;20245;-71
2022/01/31 01:10:18;;;;;;;16.13;4.33;;;4.20;99.90;;;4.77;76.49;-19889.41;5072269;28;20227;-71
2022/01/31 01:12:47;;;;;;;10.23;3.27;;;4.10;99.90;;;4.89;77.42;-19893.31;5072181;28;20226;-71
2022/01/31 01:15:16;;;;;;;16.63;4.70;;;4.10;99.90;;;5.17;75.67;-19902.72;5069339;28;20200;-72
2022/01/31 01:17:45;;;;;;;17.57;4.97;;;4.20;99.90;;;5.01;77.13;-19897.25;5051680;28;20269;-71
2022/01/31 01:20:16;;;;;;;17.23;4.57;;;4.20;99.90;;;5.05;76.28;-19898.63;5051902;28;20231;-71
2022/01/31 01:22:45;;;;;;;14.43;4.30;;;4.20;99.90;;;5.07;77.22;-19899.31;5066339;28;20797;-72
2022/01/31 01:25:16;;;;;;;18.67;4.50;;;4.10;99.90;;;4.83;77.40;-19891.28;5072580;28;20232;-71
2022/01/31 01:27:47;;;;;;;21.63;4.30;;;4.10;99.90;;;4.79;78.36;-19890.09;5072133;28;20306;-71
2022/01/31 01:30:15;;;;;;;16.57;3.87;;;4.10;99.90;;;5.05;76.81;-19898.63;5073762;28;20581;-71
2022/01/31 01:32:58;;;;;;;15.43;3.90;;;4.10;99.90;;;4.97;77.76;-19896.06;5072860;28;20240;-71
2022/01/31 01:35:31;;;;;;;14.53;4.40;;;4.20;99.90;;;4.82;79.11;-19891.09;5071757;28;20238;-71
2022/01/31 01:38:05;;;;;;;18.33;4.17;;;4.10;99.90;;;4.68;80.03;-19886.31;5071952;28;20238;-71
2022/01/31 01:40:36;;;;;;;17.90;4.50;;;4.00;99.90;;;4.69;80.19;-19886.66;5071631;28;20281;-72
2022/01/31 01:43:04;;;;;;;14.87;3.83;;;4.00;99.90;;;4.80;79.65;-19890.25;5071855;28;20249;-72
2022/01/31 01:45:33;;;;;;;13.87;3.90;;;4.00;99.90;;;4.64;79.93;-19884.97;5071588;28;20251;-71
2022/01/31 01:48:02;;;;;;;15.67;4.67;;;3.90;99.90;;;4.78;79.06;-19889.75;5071811;28;20246;-70
2022/01/31 01:50:30;;;;;;;15.37;4.03;;;3.90;99.90;;;4.82;79.43;-19891.09;5072179;28;20242;-68
2022/01/31 01:53:01;;;;;;;13.60;3.70;;;4.00;99.90;;;4.54;80.72;-19881.53;5071968;28;20257;-72
2022/01/31 01:55:29;;;;;;;17.73;4.67;;;3.90;99.90;;;4.68;80.15;-19886.31;5071769;28;20262;-72
2022/01/31 01:57:58;;;;;;;13.97;4.77;;;3.90;99.90;;;4.61;80.59;-19883.94;5071598;28;20602;-72
2022/01/31 02:00:43;;;;;;;18.23;4.70;;;3.80;99.90;;;4.60;80.19;-19883.59;5071491;28;20214;-71
2022/01/31 02:03:11;;;;;;;13.47;4.17;;;3.90;99.90;;;4.61;80.63;-19883.94;5071737;28;20218;-72
2022/01/31 02:05:41;;;;;;;14.80;4.03;;;3.80;99.90;;;4.49;81.40;-19879.81;5071786;28;20292;-71
2022/01/31 02:08:12;;;;;;;18.73;4.60;;;3.80;99.90;;;4.34;81.55;-19874.53;5071283;28;20255;-69
2022/01/31 02:10:40;;;;;;;18.27;5.37;;;3.80;99.90;;;4.59;81.37;-19883.06;5071017;28;20281;-70
2022/01/31 02:13:11;;;;;;;15.77;4.87;;;3.80;99.90;;;4.29;82.61;-19873.00;5070698;28;20645;-71
2022/01/31 02:15:40;;;;;;;16.10;5.27;;;3.70;99.90;;;3.99;84.76;-19862.72;5065401;28;20664;-72
2022/01/31 02:18:08;;;;;;;21.90;6.43;;;3.60;99.90;;;4.09;86.25;-19866.16;5051013;28;20204;-72
2022/01/31 02:20:39;;;;;;;14.03;4.80;;;3.50;99.90;;;4.15;86.14;-19868.03;5051462;28;20212;-72
2022/01/31 02:23:09;;;;;;;17.43;4.50;;;3.50;99.90;;;4.19;85.76;-19869.41;5050709;28;20244;-72
2022/01/31 02:25:54;;;;;;;18.93;4.37;;;3.50;99.90;;;4.12;86.21;-19867.00;5064056;28;20235;-72
2022/01/31 02:28:27;;;;;;;14.73;4.20;;;3.50;99.90;;;4.35;86.63;-19874.88;5070890;28;20283;-72
2022/01/31 02:30:56;;;;;;;15.77;4.30;;;3.50;99.90;;;4.43;85.59;-19877.78;5070580;28;20559;-70
2022/01/31 02:33:25;;;;;;;21.47;4.70;;;3.60;99.90;;;4.50;84.01;-19880.16;5072143;28;20836;-71
2022/01/31 02:35:57;;;;;;;13.17;3.90;;;3.70;99.90;;;4.35;84.80;-19875.03;5075048;28;20242;-70
2022/01/31 02:38:26;;;;;;;18.97;4.50;;;3.70;99.90;;;4.36;84.58;-19875.22;5074666;28;20255;-71
2022/01/31 02:40:54;;;;;;;17.17;4.70;;;3.60;99.90;;;4.36;84.76;-19875.38;5074665;28;20250;-71
2022/01/31 02:43:24;;;;;;;16.67;3.90;;;3.60;99.90;;;4.42;84.84;-19877.44;5074443;28;20249;-69
2022/01/31 02:45:52;;;;;;;14.83;5.03;;;3.70;99.90;;;4.55;83.45;-19881.72;5074218;28;20315;-69
2022/01/31 02:48:23;;;;;;;16.27;5.13;;;3.70;99.90;;;4.41;84.67;-19877.09;5074408;28;20269;-71
2022/01/31 02:50:54;;;;;;;15.10;4.03;;;3.70;99.90;;;4.40;85.57;-19876.56;5074822;28;20195;-71
2022/01/31 02:53:25;;;;;;;17.33;4.87;;;3.70;99.90;;;4.35;85.29;-19875.03;5074128;28;20728;-68
2022/01/31 02:55:55;;;;;;;21.73;5.20;;;3.60;99.90;;;4.40;86.01;-19876.75;5073893;28;20769;-69
2022/01/31 02:58:25;;;;;;;17.63;4.53;;;3.60;99.90;;;4.40;85.51;-19876.56;5074159;28;20251;-70
2022/01/31 03:00:55;;;;;;;21.57;5.00;;;3.60;99.90;;;4.50;84.93;-19880.00;5073906;28;20582;-71
2022/01/31 03:03:25;;;;;;;14.87;4.97;;;3.70;99.90;;;4.30;86.15;-19873.16;5070949;28;20224;-70
2022/01/31 03:05:54;;;;;;;15.33;4.50;;;3.70;99.90;;;4.49;85.05;-19879.81;5054793;28;20464;-69
2022/01/31 03:08:24;;;;;;;19.17;4.60;;;3.70;99.90;;;4.39;85.40;-19876.25;5054059;28;20227;-70
2022/01/31 03:10:52;;;;;;;17.67;4.50;;;3.70;99.90;;;4.51;84.55;-19880.50;5053927;28;20220;-70
2022/01/31 03:13:20;;;;;;;13.73;4.17;;;3.70;99.90;;;4.54;85.08;-19881.53;5064784;28;20272;-71
2022/01/31 03:15:51;;;;;;;14.40;5.13;;;3.70;99.90;;;4.44;85.16;-19878.13;5073630;28;20320;-68
2022/01/31 03:18:19;;;;;;;20.33;4.47;;;3.70;99.90;;;4.51;84.37;-19880.34;5073498;28;20213;-69
2022/01/31 03:20:47;;;;;;;14.67;4.30;;;3.70;99.90;;;4.34;85.81;-19874.53;5074672;28;20290;-70
2022/01/31 03:23:18;;;;;;;16.83;4.00;;;3.70;99.90;;;4.33;85.83;-19874.34;5073663;28;20231;-70
2022/01/31 03:25:46;;;;;;;12.63;3.93;;;3.70;99.90;;;4.34;86.47;-19874.69;5073811;28;20314;-72
2022/01/31 03:28:14;;;;;;;17.53;4.20;;;3.70;99.90;;;4.30;87.41;-19873.16;5073354;28;20698;-72
2022/01/31 03:30:42;;;;;;;19.17;4.70;;;3.60;99.90;;;4.19;86.59;-19869.56;5073695;28;20309;-68
2022/01/31 03:33:10;;;;;;;16.93;4.03;;;3.60;99.90;;;4.35;86.10;-19875.03;5073567;28;20678;-68
2022/01/31 03:35:38;;;;;;;16.60;4.80;;;3.60;99.90;;;4.35;85.69;-19874.88;5074314;28;20234;-70
2022/01/31 03:38:06;;;;;;;18.83;4.30;;;3.60;99.90;;;4.21;87.23;-19870.25;5073265;28;20283;-71
2022/01/31 03:40:36;;;;;;;17.17;4.27;;;3.50;99.90;;;4.12;88.38;-19867.00;5073447;28;20252;-71
2022/01/31 03:43:04;;;;;;;15.20;4.20;;;3.50;99.90;;;4.28;86.85;-19872.47;5073169;28;20310;-70
2022/01/31 03:45:34;;;;;;;14.63;4.23;;;3.50;99.90;;;4.04;88.75;-19864.28;5072132;28;20220;-70
2022/01/31 03:48:05;;;;;;;13.20;3.73;;;3.40;99.90;;;3.90;90.06;-19859.66;5073502;28;20288;-69
2022/01/31 03:50:34;;;;;;;22.67;5.07;;;3.40;99.90;;;3.95;90.50;-19861.19;5073959;28;20563;-70
2022/01/31 03:53:02;;;;;;;18.57;3.97;;;3.30;99.90;;;3.91;91.35;-19859.84;5073344;28;20226;-72
2022/01/31 03:55:30;;;;;;;18.23;4.10;;;3.30;99.90;;;3.93;91.28;-19860.50;5073080;28;20292;-70
2022/01/31 03:57:59;;;;;;;16.93;3.67;;;3.30;99.90;;;4.13;90.00;-19867.34;5072976;28;20225;-71
2022/01/31 04:00:27;;;;;;;14.70;3.97;;;3.30;99.90;;;4.06;89.75;-19864.97;5073058;28;20226;-70
2022/01/31 04:02:55;;;;;;;14.50;4.23;;;3.30;99.90;;;4.01;90.00;-19863.25;5073438;28;20226;-71
2022/01/31 04:05:23;;;;;;;17.20;4.00;;;3.30;99.90;;;4.04;90.46;-19864.44;5073216;28;20252;-71
2022/01/31 04:07:51;;;;;;;18.20;4.53;;;3.30;99.90;;;4.08;91.64;-19865.63;5072718;28;20694;-71
2022/01/31 04:10:19;;;;;;;17.60;4.30;;;3.30;99.90;;;4.31;88.58;-19873.50;5072956;28;20256;-71
2022/01/31 04:12:47;;;;;;;15.93;4.87;;;3.30;99.90;;;4.21;88.25;-19870.25;5072609;28;20231;-71
2022/01/31 04:15:17;;;;;;;15.90;4.30;;;3.40;99.90;;;4.34;88.01;-19874.69;5072492;28;20296;-71
2022/01/31 04:17:45;;;;;;;16.27;4.00;;;3.40;99.90;;;4.19;88.50;-19869.56;5073032;28;20293;-70
2022/01/31 04:20:14;;;;;;;15.60;4.27;;;3.40;99.90;;;4.10;90.24;-19866.31;5072556;28;20755;-72
2022/01/31 04:22:48;;;;;;;18.43;5.07;;;3.40;99.90;;;4.47;86.74;-19878.97;5072766;28;20318;-68
2022/01/31 04:25:29;;;;;;;19.87;3.80;;;3.40;99.90;;;4.38;86.88;-19875.91;5072483;28;20226;-70
2022/01/31 04:28:04;;;;;;;24.53;4.47;;;3.50;99.90;;;4.28;87.35;-19872.66;5072303;28;20226;-70
2022/01/31 04:30:36;;;;;;;17.73;4.33;;;3.50;99.90;;;4.27;86.78;-19872.31;5072361;28;20252;-68
2022/01/31 04:33:04;;;;;;;19.60;5.33;;;3.50;99.90;;;4.29;87.04;-19872.81;5072704;28;20243;-60
2022/01/31 04:35:32;;;;;;;15.73;4.97;;;3.50;99.90;;;4.39;86.92;-19876.25;5072864;28;20681;-61
2022/01/31 04:38:01;;;;;;;17.30;4.13;;;3.50;99.90;;;4.27;87.03;-19872.31;5072024;28;20281;-60
2022/01/31 04:40:29;;;;;;;15.03;4.37;;;3.50;99.90;;;4.39;86.16;-19876.41;5070888;28;20496;-61
2022/01/31 04:42:57;;;;;;;20.17;4.47;;;3.50;99.90;;;4.31;86.26;-19873.50;5071877;28;20245;-61
2022/01/31 04:45:26;;;;;;;20.67;5.00;;;3.60;99.90;;;4.44;85.31;-19877.94;5071811;28;20249;-61
2022/01/31 04:47:55;;;;;;;18.57;4.87;;;3.60;99.90;;;4.44;85.20;-19878.13;5072214;28;20320;-61
2022/01/31 04:50:23;;;;;;;13.47;3.67;;;3.60;99.90;;;4.40;84.64;-19876.56;5072033;28;20257;-61
2022/01/31 04:52:51;;;;;;;14.57;4.07;;;3.60;99.90;;;4.30;84.33;-19873.16;5071853;28;20709;-61
2022/01/31 04:55:20;;;;;;;17.97;4.63;;;3.60;99.90;;;4.33;85.11;-19874.34;5071964;28;20286;-60
2022/01/31 04:57:48;;;;;;;21.33;7.77;;;3.60;99.90;;;4.29;84.68;-19872.81;5071425;28;20222;-60
2022/01/31 05:00:17;;;;;;;18.13;5.50;;;3.60;99.90;;;4.55;83.65;-19881.72;5071577;28;20219;-61
2022/01/31 05:02:45;;;;;;;20.20;4.87;;;3.60;99.90;;;4.47;83.39;-19878.97;5071836;28;20673;-61
2022/01/31 05:05:15;;;;;;;12.77;4.33;;;3.60;99.90;;;4.49;83.94;-19879.66;5071569;28;20314;-62
2022/01/31 05:07:43;;;;;;;15.43;3.87;;;3.60;99.90;;;4.60;83.02;-19883.59;5071681;28;20402;-61
2022/01/31 05:10:11;;;;;;;11.50;4.97;;;3.70;99.90;;;4.72;81.20;-19887.69;5071426;28;20888;-70
2022/01/31 05:12:39;;;;;;;16.00;4.43;;;3.80;99.90;;;4.64;81.65;-19884.97;5071704;28;20310;-69
2022/01/31 05:15:08;;;;;;;13.07;3.93;;;3.80;99.90;;;4.58;81.98;-19882.91;5070694;28;20716;-70
2022/01/31 05:17:36;;;;;;;15.20;4.50;;;3.80;99.90;;;4.62;82.34;-19884.09;5052482;28;20237;-71
2022/01/31 05:20:06;;;;;;;13.63;4.93;;;3.80;99.90;;;4.54;83.25;-19881.38;5068556;28;20665;-70
2022/01/31 05:22:36;;;;;;;15.23;5.10;;;3.70;99.90;;;4.65;82.10;-19885.13;5071745;28;20228;-70
2022/01/31 05:25:04;;;;;;;15.97;4.47;;;3.70;99.90;;;4.62;82.61;-19884.09;5071376;28;20607;-68
2022/01/31 05:27:32;;;;;;;16.27;5.13;;;3.70;99.90;;;4.57;82.69;-19882.56;5071184;28;20235;-70
2022/01/31 05:30:01;;;;;;;15.90;4.27;;;3.70;99.90;;;4.69;82.57;-19886.66;5071132;28;20778;-69
2022/01/31 05:32:28;;;;;;;13.77;3.73;;;3.70;99.90;;;4.60;82.75;-19883.41;5071663;28;20246;-71
2022/01/31 05:34:57;;;;;;;16.43;4.40;;;3.70;99.90;;;4.55;83.14;-19881.88;5071200;28;20724;-70
2022/01/31 05:37:25;;;;;;;17.10;4.70;;;3.70;99.90;;;4.53;83.40;-19881.03;5071305;28;20224;-70
2022/01/31 05:39:54;;;;;;;14.77;4.20;;;3.70;99.90;;;4.54;82.90;-19881.53;5071208;28;20252;-70
2022/01/31 05:42:22;;;;;;;13.50;4.33;;;3.70;99.90;;;4.39;83.58;-19876.41;5070853;28;20738;-71
2022/01/31 05:44:50;;;;;;;10.70;4.47;;;3.70;99.90;;;4.21;85.42;-19870.25;5071340;28;20249;-72
2022/01/31 05:47:18;;;;;;;15.27;4.20;;;3.60;99.90;;;4.43;83.68;-19877.78;5070247;28;20315;-71
2022/01/31 05:49:47;;;;;;;17.10;4.27;;;3.60;99.90;;;4.54;83.64;-19881.38;5070718;28;20225;-71
2022/01/31 05:52:16;;;;;;;15.13;4.20;;;3.70;99.90;;;4.43;83.60;-19877.78;5070957;28;20277;-69
2022/01/31 05:54:44;;;;;;;18.00;4.40;;;3.70;99.90;;;4.26;84.99;-19871.97;5070794;28;20300;-69
2022/01/31 05:57:14;;;;;;;15.10;4.70;;;3.60;99.90;;;4.41;85.39;-19876.94;5070634;28;20241;-72
2022/01/31 05:59:42;;;;;;;18.07;5.37;;;3.50;99.90;;;4.42;84.36;-19877.44;5070925;28;20706;-71
2022/01/31 06:02:11;;;;;;;12.53;4.10;;;3.60;99.90;;;4.18;85.72;-19869.06;5070815;28;20312;-71
2022/01/31 06:04:39;;;;;;;15.97;4.63;;;3.50;99.90;;;4.22;86.17;-19870.59;5050781;28;20304;-71
2022/01/31 06:07:07;;;;;;;15.13;4.50;;;3.50;99.90;;;4.30;85.37;-19873.34;5058383;28;20321;-70
2022/01/31 06:09:37;;;;;;;13.97;4.20;;;3.50;99.90;;;4.34;84.90;-19874.69;5069770;28;20260;-71
2022/01/31 06:12:06;;;;;;;18.17;5.33;;;3.50;99.90;;;4.34;85.60;-19874.69;5070599;28;20202;-70
2022/01/31 06:14:36;;;;;;;14.57;4.37;;;3.50;99.90;;;4.18;87.04;-19869.06;5070711;28;20647;-69
2022/01/31 06:17:04;;;;;;;13.87;4.80;;;3.50;99.90;;;4.32;86.04;-19873.84;5070194;28;20249;-68
2022/01/31 06:19:32;;;;;;;15.13;5.10;;;3.50;99.90;;;4.40;86.10;-19876.75;5070135;28;20235;-67
2022/01/31 06:22:01;;;;;;;16.53;5.17;;;3.50;99.90;;;4.37;85.02;-19875.72;5070765;28;20309;-67
2022/01/31 06:24:29;;;;;;;14.23;4.50;;;3.50;99.90;;;4.25;87.02;-19871.63;5070844;28;20719;-70
2022/01/31 06:26:58;;;;;;;14.93;5.17;;;3.50;99.90;;;4.26;87.44;-19871.78;5071190;28;20300;-69
2022/01/31 06:29:27;;;;;;;12.60;4.57;;;3.50;99.90;;;4.27;85.58;-19872.31;5070723;28;20264;-70
2022/01/31 06:31:57;;;;;;;15.83;5.33;;;3.50;99.90;;;4.28;85.60;-19872.66;5070440;28;20229;-70
2022/01/31 06:34:25;;;;;;;13.90;4.20;;;3.50;99.90;;;4.38;85.93;-19876.06;5070373;28;20719;-69
2022/01/31 06:36:53;;;;;;;15.33;4.50;;;3.50;99.90;;;4.37;85.91;-19875.72;5070794;28;20254;-70
2022/01/31 06:39:21;;;;;;;14.87;4.97;;;3.50;99.90;;;4.37;86.16;-19875.72;5070643;28;20666;-71
2022/01/31 06:41:49;;;;;;;13.80;4.47;;;3.50;99.90;;;4.48;85.86;-19879.31;5071062;28;20272;-70
2022/01/31 06:44:17;;;;;;;17.13;4.37;;;3.60;99.90;;;4.27;86.13;-19872.31;5070430;28;20664;-71
2022/01/31 06:46:45;;;;;;;10.20;4.37;;;3.50;99.90;;;4.12;87.35;-19867.00;5070170;28;20708;-70
2022/01/31 06:49:15;;;;;;;15.63;4.73;;;3.50;99.90;;;4.36;86.41;-19875.38;5070625;28;20291;-69
2022/01/31 06:51:43;;;;;;;14.30;4.50;;;3.50;99.90;;;4.18;87.27;-19869.22;5070320;28;20225;-68
2022/01/31 06:54:11;;;;;;;13.57;5.17;;;3.50;99.90;;;4.27;87.62;-19872.31;5070382;28;20215;-68
2022/01/31 06:56:42;;;;;;;16.50;4.50;;;3.50;99.90;;;4.14;88.48;-19867.69;5070437;28;20208;-68
2022/01/31 06:59:10;;;;;;;20.47;4.50;;;3.50;99.90;;;4.12;89.62;-19867.19;5070448;28;20828;-71
2022/01/31 07:01:38;;;;;;;14.77;5.03;;;3.50;99.90;;;4.37;87.68;-19875.72;5070080;28;20229;-70
2022/01/31 07:04:06;;;;;;;14.73;4.50;;;3.50;99.90;;;4.54;86.52;-19881.53;5070080;28;20228;-69
2022/01/31 07:06:36;;;;;;;13.33;4.20;;;3.60;99.90;;;4.57;85.70;-19882.56;5071283;28;20506;-70
2022/01/31 07:09:04;;;;;;;15.00;4.77;;;3.60;99.90;;;4.46;85.82;-19878.81;5070749;28;20752;-73
2022/01/31 07:11:37;;;;;;;9.93;3.97;;;3.60;99.90;;;4.47;85.76;-19879.16;5070394;28;20237;-70
2022/01/31 07:14:08;;;;;;;11.80;4.10;;;3.70;99.90;;;4.46;86.55;-19878.81;5070364;28;20249;-71
2022/01/31 07:16:36;;;;;;;11.77;4.43;;;3.70;99.90;;;4.54;86.84;-19881.53;5069836;28;20284;-70
2022/01/31 07:19:07;;;;;;;17.63;4.43;;;3.70;99.90;;;4.72;85.80;-19887.69;5070861;28;20223;-70
2022/01/31 07:21:45;;;;;;;15.40;4.40;;;3.80;99.90;;;4.69;86.62;-19886.66;5074059;28;20225;-61
2022/01/31 07:24:22;;;;;;;11.53;3.97;;;3.80;99.90;;;4.50;88.40;-19880.00;5074051;28;20186;-61
2022/01/31 07:26:51;;;;;;;13.60;5.10;;;3.80;99.90;;;4.57;93.57;-19882.56;5074049;28;20221;-60
2022/01/31 07:29:21;;;;;;;12.77;4.77;;;3.80;99.90;;;4.18;100.00;-19869.22;5074055;28;20683;-61
2022/01/31 07:31:53;;;;;;;17.17;4.63;;;3.50;99.90;;;3.75;100.00;-19854.69;5073318;28;20262;-61
2022/01/31 07:34:21;;;;;;;13.50;4.80;;;3.30;99.90;;;3.73;100.00;-19854.03;5073300;28;20657;-60
2022/01/31 07:36:52;;;;;;;18.83;5.97;;;3.20;99.90;;;3.53;100.00;-19847.00;5073815;28;20220;-61
2022/01/31 07:39:21;;;;;;;10.23;4.57;;;3.00;99.90;;;3.68;100.00;-19852.13;5073780;28;20240;-61
2022/01/31 07:41:50;;;;;;;13.23;5.03;;;2.90;99.90;;;3.45;100.00;-19844.28;5073678;28;20299;-61
2022/01/31 07:44:18;;;;;;;16.67;5.70;;;2.70;99.90;;;3.17;100.00;-19834.88;5073231;28;20270;-60
2022/01/31 07:46:48;;;;;;;12.87;5.40;;;2.60;99.90;;;3.05;100.00;-19830.59;5072637;28;20323;-61
2022/01/31 07:49:16;;;;;;;15.93;5.63;;;2.30;99.90;;;2.91;100.00;-19825.97;5073609;28;20282;-61
2022/01/31 07:51:44;;;;;;;11.50;4.93;;;2.20;99.90;;;2.84;100.00;-19823.41;5072854;28;20220;-61
2022/01/31 07:54:14;;;;;;;16.13;5.57;;;2.10;99.90;;;2.80;100.00;-19822.22;5073153;28;20231;-60
2022/01/31 07:56:42;;;;;;;17.47;5.73;;;2.00;99.90;;;2.66;100.00;-19817.25;5072798;28;20234;-61
2022/01/31 07:59:10;;;;;;;13.37;6.00;;;2.00;99.90;;;2.79;100.00;-19821.88;5072537;28;20221;-60
2022/01/31 08:01:38;;;;;;;21.63;5.33;;;2.00;99.90;;;2.79;100.00;-19821.72;5072948;28;20226;-61
2022/01/31 08:04:07;;;;;;;13.63;5.63;;;2.00;99.90;;;2.65;100.00;-19817.09;5063733;28;20308;-61
2022/01/31 08:06:35;;;;;;;16.30;6.27;;;1.90;99.90;;;2.83;100.00;-19823.25;5052817;28;20305;-62
2022/01/31 08:09:05;;;;;;;15.27;6.10;;;1.90;99.90;;;2.66;100.00;-19817.25;5053769;28;20229;-62
2022/01/31 08:11:35;;;;;;;13.40;5.57;;;1.90;99.90;;;2.52;100.00;-19812.47;5073492;28;20205;-60
2022/01/31 08:14:08;;;;;;;14.47;5.00;;;1.80;99.90;;;2.42;100.00;-19809.22;5072855;28;20232;-62
2022/01/31 08:16:38;;;;;;;10.70;5.40;;;1.80;99.90;;;2.53;100.00;-19813.00;5072735;28;20257;-61
2022/01/31 08:19:08;;;;;;;11.80;5.00;;;1.80;99.90;;;2.79;100.00;-19821.72;5072831;28;20220;-61
2022/01/31 08:21:56;;;;;;;12.83;6.00;;;1.80;99.90;;;2.66;100.00;-19817.25;5072652;28;20221;-60
2022/01/31 08:24:24;;;;;;;11.57;5.57;;;1.80;99.90;;;2.85;100.00;-19823.94;5072722;28;20216;-60
2022/01/31 08:26:57;;;;;;;13.97;6.00;;;1.90;99.90;;;2.84;100.00;-19823.41;5073384;28;20233;-61
2022/01/31 08:29:30;;;;;;;11.37;5.40;;;1.90;99.90;;;2.80;100.00;-19822.06;5072956;28;21177;-61
2022/01/31 08:32:06;;;;;;;10.80;4.80;;;1.90;99.90;;;2.68;100.00;-19818.13;5072142;28;20310;-60
2022/01/31 08:37:20;;;;;;;17.30;5.63;;;1.90;99.90;;;2.70;100.00;-19818.81;5072789;28;20318;-61
2022/01/31 08:39:48;;;;;;;15.87;5.93;;;1.90;99.90;;;2.67;100.00;-19817.59;5072557;28;20234;-61
2022/01/31 08:42:18;;;;;;;15.97;5.27;;;1.90;99.90;;;2.70;100.00;-19818.81;5072374;28;20201;-61
2022/01/31 08:44:48;;;;;;;10.47;5.37;;;1.90;99.90;;;2.74;100.00;-19820.00;5073286;28;20243;-61
2022/01/31 08:47:17;;;;;;;15.17;6.13;;;1.90;99.90;;;2.81;100.00;-19822.41;5072255;28;20313;-61
2022/01/31 08:49:46;;;;;;;11.17;5.63;;;2.00;99.90;;;2.79;100.00;-19821.88;5072777;28;20825;-62
2022/01/31 08:52:14;;;;;;;10.20;5.30;;;2.00;99.90;;;2.96;100.00;-19827.53;5072550;28;20255;-61
2022/01/31 08:54:42;;;;;;;13.87;6.33;;;2.10;99.90;;;2.89;100.00;-19825.13;5072396;28;20832;-62
2022/01/31 08:57:11;;;;;;;17.03;6.27;;;2.10;99.90;;;3.18;100.00;-19835.03;5072132;28;20236;-61
2022/01/31 08:59:44;;;;;;;13.60;5.53;;;2.10;99.90;;;3.24;100.00;-19837.28;5073186;28;20778;-62
2022/01/31 09:02:16;;;;;;;11.70;5.77;;;2.20;99.90;;;3.24;100.00;-19837.09;5072099;28;20223;-61
2022/01/31 09:04:48;;;;;;;13.50;5.83;;;2.20;99.90;;;3.23;100.00;-19836.91;5057482;28;20236;-61
2022/01/31 09:07:19;;;;;;;12.20;5.23;;;2.20;99.90;;;3.00;100.00;-19828.88;5062868;28;20236;-63
2022/01/31 09:09:51;;;;;;;17.20;5.93;;;2.20;99.90;;;3.18;100.00;-19835.03;5072650;28;20298;-61
2022/01/31 09:12:20;;;;;;;14.87;6.13;;;2.20;99.90;;;3.25;100.00;-19837.59;5072602;28;20235;-62
2022/01/31 09:14:49;;;;;;;14.63;6.80;;;2.20;99.90;;;3.50;100.00;-19846.16;5072526;28;20303;-62
2022/01/31 09:17:17;;;;;;;13.87;5.63;;;2.30;99.90;;;3.37;100.00;-19841.72;5071372;28;20231;-62
2022/01/31 09:19:45;;;;;;;9.47;5.60;;;2.30;99.90;;;3.23;100.00;-19836.75;5071799;28;20309;-62
2022/01/31 09:22:14;;;;;;;10.30;6.57;;;2.30;99.90;;;3.55;100.00;-19847.69;5071701;28;20718;-61
2022/01/31 09:24:43;;;;;;;14.87;6.50;;;2.40;99.90;;;3.43;100.00;-19843.75;5072254;28;20278;-61
2022/01/31 09:27:12;;;;;;;13.70;6.10;;;2.50;99.90;;;3.49;100.00;-19845.81;5071765;28;20233;-60
2022/01/31 09:29:41;;;;;;;10.20;5.87;;;2.60;99.90;;;3.63;100.00;-19850.44;5072453;28;20221;-61
2022/01/31 09:32:12;;;;;;;13.07;6.23;;;2.60;99.90;;;3.55;100.00;-19847.88;5071432;28;20221;-62
2022/01/31 09:34:41;;;;;;;10.97;5.60;;;2.60;99.90;;;3.83;100.00;-19857.25;5071480;28;20782;-61
2022/01/31 09:37:09;;;;;;;12.00;5.87;;;2.70;99.90;;;3.70;100.00;-19852.81;5071589;28;20236;-60
2022/01/31 09:39:37;;;;;;;10.70;5.27;;;2.70;99.90;;;3.53;100.00;-19847.00;5071492;28;20340;-61
2022/01/31 09:42:10;;;;;;;12.27;5.57;;;2.60;99.90;;;3.47;100.00;-19845.13;5071080;28;20248;-61
2022/01/31 09:45:04;;;;;;;12.50;6.17;;;2.60;99.90;;;3.57;100.00;-19848.38;5071521;28;20568;-61
2022/01/31 09:50:16;;;;;;;12.23;5.83;;;2.60;99.90;;;3.47;100.00;-19845.13;5070959;28;20337;-61
2022/01/31 09:52:44;;;;;;;9.80;6.07;;;2.60;99.90;;;3.51;100.00;-19846.31;5070930;28;20253;-61
2022/01/31 09:55:12;;;;;;;14.67;6.80;;;2.60;99.90;;;3.41;100.00;-19842.91;5071315;28;20278;-61
2022/01/31 09:57:40;;;;;;;11.00;6.43;;;2.60;99.90;;;3.54;100.00;-19847.53;5071361;28;20263;-61
2022/01/31 10:00:11;;;;;;;11.43;6.03;;;2.60;99.90;;;3.40;100.00;-19842.72;5071459;28;20203;-60
2022/01/31 10:02:41;;;;;;;12.20;7.43;;;2.60;99.90;;;3.39;100.00;-19842.41;5071627;28;20228;-62
2022/01/31 10:05:11;;;;;;;14.53;6.80;;;2.60;99.90;;;3.56;100.00;-19848.22;5071233;28;20247;-62
2022/01/31 10:07:47;;;;;;;10.73;6.00;;;2.70;99.90;;;3.62;100.00;-19850.09;5071115;28;20278;-61
2022/01/31 10:10:21;;;;;;;8.10;5.13;;;2.70;99.90;;;3.76;100.00;-19854.88;5071079;28;20285;-61
2022/01/31 10:18:23;;;;;;;8.53;6.10;;;2.90;99.90;;;3.79;100.00;-19855.72;5071329;28;20291;-61
2022/01/31 10:21:08;;;;;;;9.40;4.53;;;2.90;99.90;;;3.84;100.00;-19857.44;5070995;28;20275;-63
2022/01/31 10:23:42;;;;;;;6.80;4.40;;;2.90;99.90;;;3.77;100.00;-19855.03;5071242;28;20267;-62
2022/01/31 10:26:30;;;;;;;5.77;4.77;;;2.90;99.90;;;3.64;100.00;-19850.78;5070788;28;20248;-61
2022/01/31 10:29:18;;;;;;;6.07;5.47;;;2.90;99.90;;;3.57;100.00;-19848.38;5069519;28;20751;-62
2022/01/31 10:32:01;;;;;;;6.77;4.77;;;2.80;99.90;;;3.70;100.00;-19853.00;5070872;28;20233;-63
2022/01/31 10:34:35;;;;;;;6.23;5.03;;;2.80;99.90;;;3.76;100.00;-19854.88;5070807;28;20224;-63
2022/01/31 10:37:07;;;;;;;5.93;4.20;;;2.80;99.90;;;3.56;100.00;-19848.22;5070964;28;20260;-63
2022/01/31 10:54:27;;;;;;;4.97;4.20;;;2.60;99.90;;;3.44;100.00;-19843.94;5062979;28;20205;-62